Time;durP1;ratioP1;P1;durP2;ratioP2;P2;SDS_P1;SDS_P2;PMS_P1;PMS_P2;Temp;Humidity;BMP_temperature;BMP_pressure;BME280_temperature;BME280_humidity;BME280_pressure;Samples;Min_cycle;Max_cycle;Signal;HPM_P1;HPM_P2
2023/08/10 00:01:27;;;;;;;11.15;10.65;;;;;;;;;;5074930;28;20503;-59
2023/08/10 00:03:52;;;;;;;11.50;10.95;;;;;;;;;;5073606;28;20024;-60
2023/08/10 00:06:17;;;;;;;11.25;10.75;;;;;;;;;;5072198;28;20017;-58
2023/08/10 00:08:42;;;;;;;11.10;10.60;;;;;;;;;;5075897;28;20016;-59
2023/08/10 00:11:08;;;;;;;11.48;10.98;;;;;;;;;;5073226;28;20462;-59
2023/08/10 00:13:33;;;;;;;11.60;11.10;;;;;;;;;;5074195;28;20024;-59
2023/08/10 00:15:58;;;;;;;11.55;11.05;;;;;;;;;;5072917;28;20685;-59
2023/08/10 00:18:23;;;;;;;11.40;10.90;;;;;;;;;;5066473;28;20029;-59
2023/08/10 00:20:51;;;;;;;11.02;10.52;;;;;;;;;;5070775;28;20391;-59
2023/08/10 00:23:16;;;;;;;10.90;10.40;;;;;;;;;;5068123;28;20024;-58
2023/08/10 00:25:41;;;;;;;10.93;10.43;;;;;;;;;;5076108;28;20031;-59
2023/08/10 00:28:07;;;;;;;11.73;11.13;;;;;;;;;;5070699;28;20480;-59
2023/08/10 00:30:32;;;;;;;11.40;10.90;;;;;;;;;;5071188;28;20035;-59
2023/08/10 00:32:57;;;;;;;10.90;10.40;;;;;;;;;;5074330;28;20055;-59
2023/08/10 00:35:23;;;;;;;11.10;10.60;;;;;;;;;;5073856;28;20031;-59
2023/08/10 00:37:49;;;;;;;11.10;10.60;;;;;;;;;;5075667;28;20040;-59
2023/08/10 00:40:15;;;;;;;11.07;10.57;;;;;;;;;;5072212;28;20502;-59
2023/08/10 00:42:40;;;;;;;11.02;10.52;;;;;;;;;;5068307;28;20025;-59
2023/08/10 00:45:06;;;;;;;11.05;10.55;;;;;;;;;;5070126;28;20486;-58
2023/08/10 00:47:31;;;;;;;10.63;10.13;;;;;;;;;;5071958;28;20097;-59
2023/08/10 00:49:56;;;;;;;11.48;10.98;;;;;;;;;;5069953;28;20055;-58
2023/08/10 00:52:22;;;;;;;11.02;10.52;;;;;;;;;;5069372;28;20048;-59
2023/08/10 00:54:47;;;;;;;10.95;10.45;;;;;;;;;;5073235;28;20039;-59
2023/08/10 00:57:12;;;;;;;10.88;10.38;;;;;;;;;;5072031;28;20486;-59
2023/08/10 00:59:38;;;;;;;11.00;10.50;;;;;;;;;;5070334;28;20017;-59
2023/08/10 01:02:04;;;;;;;10.98;10.48;;;;;;;;;;5071941;28;20064;-60
2023/08/10 01:04:29;;;;;;;10.93;10.43;;;;;;;;;;5072748;28;20021;-60
2023/08/10 01:06:54;;;;;;;11.15;10.65;;;;;;;;;;5070952;28;20028;-59
2023/08/10 01:09:25;;;;;;;11.10;10.60;;;;;;;;;;5070711;28;20392;-59
2023/08/10 01:11:50;;;;;;;10.77;10.27;;;;;;;;;;5071232;28;20029;-59
2023/08/10 01:14:19;;;;;;;11.00;10.50;;;;;;;;;;5072094;28;20542;-59
2023/08/10 01:16:45;;;;;;;11.23;10.73;;;;;;;;;;5069927;28;20361;-60
2023/08/10 01:19:32;;;;;;;11.10;10.60;;;;;;;;;;5070292;28;20058;-58
2023/08/10 01:22:02;;;;;;;11.40;10.90;;;;;;;;;;5068956;28;20028;-60
2023/08/10 01:24:31;;;;;;;11.00;10.50;;;;;;;;;;5071356;28;20103;-57
2023/08/10 01:26:57;;;;;;;11.30;10.80;;;;;;;;;;5068363;28;20028;-60
2023/08/10 01:29:22;;;;;;;11.20;10.70;;;;;;;;;;5069222;28;20082;-58
2023/08/10 01:31:48;;;;;;;11.20;10.70;;;;;;;;;;5073782;28;20028;-59
2023/08/10 01:34:13;;;;;;;10.93;10.43;;;;;;;;;;5070754;28;20024;-59
2023/08/10 01:36:38;;;;;;;11.20;10.70;;;;;;;;;;5070134;28;20028;-58
2023/08/10 01:39:04;;;;;;;11.10;10.60;;;;;;;;;;5070677;28;20027;-58
2023/08/10 01:41:30;;;;;;;10.88;10.38;;;;;;;;;;5070835;28;20023;-59
2023/08/10 01:43:56;;;;;;;11.13;10.63;;;;;;;;;;5070983;28;20012;-59
2023/08/10 01:46:23;;;;;;;11.05;10.55;;;;;;;;;;5070714;28;20463;-58
2023/08/10 01:48:50;;;;;;;11.48;10.93;;;;;;;;;;5068422;28;20137;-58
2023/08/10 01:51:18;;;;;;;11.50;11.00;;;;;;;;;;5065764;28;20070;-60
2023/08/10 01:53:45;;;;;;;11.20;10.70;;;;;;;;;;5070922;28;20059;-59
2023/08/10 01:56:11;;;;;;;11.30;10.80;;;;;;;;;;5066898;28;20020;-59
2023/08/10 01:58:37;;;;;;;11.80;11.20;;;;;;;;;;5070886;28;20028;-59
2023/08/10 02:01:02;;;;;;;11.25;10.75;;;;;;;;;;5069785;28;20036;-58
2023/08/10 02:03:27;;;;;;;11.27;10.77;;;;;;;;;;5070294;28;20024;-58
2023/08/10 02:05:53;;;;;;;10.70;10.20;;;;;;;;;;5069197;28;20029;-58
2023/08/10 02:08:18;;;;;;;10.88;10.38;;;;;;;;;;5070637;28;20387;-59
2023/08/10 02:10:43;;;;;;;10.90;10.40;;;;;;;;;;5068481;28;20051;-58
2023/08/10 02:13:09;;;;;;;11.10;10.60;;;;;;;;;;5072097;28;20103;-59
2023/08/10 02:15:34;;;;;;;11.05;10.55;;;;;;;;;;5067679;28;20020;-59
2023/08/10 02:17:59;;;;;;;11.25;10.75;;;;;;;;;;5070112;28;20059;-59
2023/08/10 02:20:25;;;;;;;11.18;10.68;;;;;;;;;;5070171;28;20029;-58
2023/08/10 02:22:51;;;;;;;11.68;11.10;;;;;;;;;;5069204;28;20028;-58
2023/08/10 02:25:17;;;;;;;11.70;11.10;;;;;;;;;;5070312;28;20028;-58
2023/08/10 02:27:43;;;;;;;11.35;10.85;;;;;;;;;;5067750;28;20078;-58
2023/08/10 02:30:09;;;;;;;11.25;10.75;;;;;;;;;;5067608;28;20020;-58
2023/08/10 02:32:35;;;;;;;11.68;11.07;;;;;;;;;;5069904;28;20097;-58
2023/08/10 02:35:04;;;;;;;11.15;10.65;;;;;;;;;;5070153;28;20127;-58
2023/08/10 02:37:30;;;;;;;11.00;10.50;;;;;;;;;;5070391;28;20040;-58
2023/08/10 02:39:55;;;;;;;11.27;10.77;;;;;;;;;;5069351;28;20435;-58
2023/08/10 02:42:21;;;;;;;10.93;10.43;;;;;;;;;;5073023;28;20043;-60
2023/08/10 02:44:48;;;;;;;10.93;10.43;;;;;;;;;;5071192;28;20040;-59
2023/08/10 02:47:14;;;;;;;11.13;10.63;;;;;;;;;;5072935;28;20036;-58
2023/08/10 02:49:39;;;;;;;11.30;10.80;;;;;;;;;;5074230;28;20021;-58
2023/08/10 02:52:05;;;;;;;11.02;10.52;;;;;;;;;;5071917;28;20028;-58
2023/08/10 02:54:30;;;;;;;11.25;10.75;;;;;;;;;;5070172;28;20070;-58
2023/08/10 02:56:55;;;;;;;10.70;10.20;;;;;;;;;;5070368;28;20376;-59
2023/08/10 02:59:21;;;;;;;11.13;10.63;;;;;;;;;;5066307;28;20025;-58
2023/08/10 03:01:46;;;;;;;10.80;10.30;;;;;;;;;;5068881;28;20091;-59
2023/08/10 03:04:12;;;;;;;11.27;10.77;;;;;;;;;;5068598;28;20487;-59
2023/08/10 03:06:37;;;;;;;10.90;10.40;;;;;;;;;;5063573;28;20739;-58
2023/08/10 03:09:03;;;;;;;10.95;10.45;;;;;;;;;;5072150;28;20025;-59
2023/08/10 03:11:29;;;;;;;11.00;10.50;;;;;;;;;;5068737;28;20029;-58
2023/08/10 03:13:54;;;;;;;10.80;10.30;;;;;;;;;;5067304;28;20025;-58
2023/08/10 03:16:19;;;;;;;10.95;10.45;;;;;;;;;;5069402;28;20071;-58
2023/08/10 03:18:45;;;;;;;11.20;10.70;;;;;;;;;;5069803;28;20388;-58
2023/08/10 03:21:10;;;;;;;10.98;10.48;;;;;;;;;;5068599;28;20077;-59
2023/08/10 03:23:36;;;;;;;11.43;10.93;;;;;;;;;;5070523;28;20483;-59
2023/08/10 03:26:01;;;;;;;11.02;10.52;;;;;;;;;;5074207;28;20428;-59
2023/08/10 03:28:26;;;;;;;11.02;10.52;;;;;;;;;;5074928;28;20012;-60
2023/08/10 03:30:52;;;;;;;10.82;10.32;;;;;;;;;;5071598;28;20021;-60
2023/08/10 03:33:17;;;;;;;10.90;10.40;;;;;;;;;;5070314;28;20468;-60
2023/08/10 03:35:42;;;;;;;11.02;10.52;;;;;;;;;;5075350;28;20024;-59
2023/08/10 03:38:08;;;;;;;10.80;10.30;;;;;;;;;;5072919;28;20020;-59
2023/08/10 03:40:34;;;;;;;10.70;10.20;;;;;;;;;;5074535;28;20059;-59
2023/08/10 03:42:59;;;;;;;11.05;10.55;;;;;;;;;;5078159;28;20087;-59
2023/08/10 03:45:24;;;;;;;11.20;10.70;;;;;;;;;;5076979;28;20086;-60
2023/08/10 03:47:50;;;;;;;10.98;10.48;;;;;;;;;;5070574;28;20028;-59
2023/08/10 03:50:15;;;;;;;11.02;10.52;;;;;;;;;;5073247;28;20028;-58
2023/08/10 03:52:41;;;;;;;10.80;10.30;;;;;;;;;;5071788;28;20059;-60
2023/08/10 03:55:06;;;;;;;11.00;10.50;;;;;;;;;;5073131;28;20078;-58
2023/08/10 03:57:32;;;;;;;10.80;10.30;;;;;;;;;;5072945;28;20533;-59
2023/08/10 03:59:58;;;;;;;10.60;10.10;;;;;;;;;;5072392;28;20042;-59
2023/08/10 04:02:24;;;;;;;11.27;10.77;;;;;;;;;;5074001;28;20348;-58
2023/08/10 04:04:49;;;;;;;11.13;10.63;;;;;;;;;;5074887;28;20024;-59
2023/08/10 04:07:14;;;;;;;11.30;10.80;;;;;;;;;;5070994;28;20170;-59
2023/08/10 04:09:44;;;;;;;11.40;10.90;;;;;;;;;;5072451;28;20031;-60
2023/08/10 04:12:10;;;;;;;11.63;11.13;;;;;;;;;;5074492;28;20027;-59
2023/08/10 04:14:35;;;;;;;11.00;10.50;;;;;;;;;;5073426;28;20391;-59
2023/08/10 04:17:00;;;;;;;10.88;10.38;;;;;;;;;;5073772;28;20016;-59
2023/08/10 04:19:27;;;;;;;11.38;10.88;;;;;;;;;;5073716;28;20394;-59
2023/08/10 04:21:53;;;;;;;11.60;11.10;;;;;;;;;;5072107;28;20483;-59
2023/08/10 04:24:18;;;;;;;11.20;10.70;;;;;;;;;;5074622;28;20052;-59
2023/08/10 04:26:45;;;;;;;11.20;10.70;;;;;;;;;;5075518;28;20126;-60
2023/08/10 04:29:10;;;;;;;11.50;11.00;;;;;;;;;;5077243;28;20036;-59
2023/08/10 04:31:36;;;;;;;11.23;10.73;;;;;;;;;;5073085;28;20055;-60
2023/08/10 04:34:01;;;;;;;11.60;11.10;;;;;;;;;;5069328;28;20070;-59
2023/08/10 04:36:26;;;;;;;11.27;10.77;;;;;;;;;;5072507;28;20082;-59
2023/08/10 04:38:52;;;;;;;11.25;10.75;;;;;;;;;;5073274;28;20022;-60
2023/08/10 04:41:17;;;;;;;11.53;11.03;;;;;;;;;;5073813;28;20013;-59
2023/08/10 04:43:43;;;;;;;11.55;11.05;;;;;;;;;;5071003;28;20292;-58
2023/08/10 04:46:09;;;;;;;11.60;11.10;;;;;;;;;;5074549;28;20094;-59
2023/08/10 04:48:34;;;;;;;11.55;11.05;;;;;;;;;;5071177;28;20025;-59
2023/08/10 04:50:59;;;;;;;11.38;10.88;;;;;;;;;;5068282;28;20067;-59
2023/08/10 04:53:25;;;;;;;11.50;11.00;;;;;;;;;;5071284;28;20024;-59
2023/08/10 04:55:50;;;;;;;11.45;10.95;;;;;;;;;;5068359;28;20396;-59
2023/08/10 04:58:16;;;;;;;11.38;10.88;;;;;;;;;;5069897;28;20048;-60
2023/08/10 05:00:41;;;;;;;11.75;11.25;;;;;;;;;;5070515;28;20056;-60
2023/08/10 05:03:06;;;;;;;11.50;11.00;;;;;;;;;;5074235;28;20090;-59
2023/08/10 05:05:32;;;;;;;11.30;10.80;;;;;;;;;;5074012;28;20256;-59
2023/08/10 05:07:58;;;;;;;11.60;11.10;;;;;;;;;;5071235;28;20665;-59
2023/08/10 05:10:23;;;;;;;11.60;11.10;;;;;;;;;;5075005;28;20027;-58
2023/08/10 05:12:49;;;;;;;11.50;11.00;;;;;;;;;;5072181;28;20067;-58
2023/08/10 05:15:14;;;;;;;11.55;11.05;;;;;;;;;;5071290;28;20471;-58
2023/08/10 05:17:40;;;;;;;11.52;11.02;;;;;;;;;;5072048;28;20074;-59
2023/08/10 05:20:10;;;;;;;11.32;10.82;;;;;;;;;;5072072;28;20032;-59
2023/08/10 05:22:36;;;;;;;11.15;10.65;;;;;;;;;;5073217;28;20025;-58
2023/08/10 05:25:01;;;;;;;11.35;10.85;;;;;;;;;;5073822;28;20031;-60
2023/08/10 05:27:27;;;;;;;11.50;11.00;;;;;;;;;;5069750;28;20472;-58
2023/08/10 05:29:52;;;;;;;11.63;11.13;;;;;;;;;;5071983;28;20024;-59
2023/08/10 05:32:18;;;;;;;11.27;10.77;;;;;;;;;;5075306;28;20461;-59
2023/08/10 05:34:43;;;;;;;11.50;11.00;;;;;;;;;;5071192;28;20468;-59
2023/08/10 05:37:08;;;;;;;11.30;10.80;;;;;;;;;;5071605;28;20038;-60
2023/08/10 05:39:34;;;;;;;11.80;11.30;;;;;;;;;;5073435;28;20257;-60
2023/08/10 05:41:59;;;;;;;11.60;11.10;;;;;;;;;;5071354;28;20024;-59
2023/08/10 05:44:24;;;;;;;11.52;11.02;;;;;;;;;;5071417;28;20476;-60
2023/08/10 05:46:49;;;;;;;11.57;11.07;;;;;;;;;;5067629;28;20020;-61
2023/08/10 05:49:15;;;;;;;11.25;10.75;;;;;;;;;;5070755;28;20245;-59
2023/08/10 05:51:40;;;;;;;11.27;10.77;;;;;;;;;;5070659;28;20376;-59
2023/08/10 05:54:06;;;;;;;11.48;10.98;;;;;;;;;;5067301;28;20164;-58
2023/08/10 05:56:31;;;;;;;11.38;10.88;;;;;;;;;;5071929;28;20103;-59
2023/08/10 05:58:56;;;;;;;11.47;10.97;;;;;;;;;;5070043;28;20016;-59
2023/08/10 06:01:21;;;;;;;11.45;10.95;;;;;;;;;;5058325;28;20346;-58
2023/08/10 06:03:48;;;;;;;11.30;10.80;;;;;;;;;;5048813;28;20521;-60
2023/08/10 06:06:13;;;;;;;11.15;10.65;;;;;;;;;;5050134;28;20336;-59
2023/08/10 06:08:38;;;;;;;11.40;10.90;;;;;;;;;;5049066;28;20116;-59
2023/08/10 06:11:05;;;;;;;11.33;10.83;;;;;;;;;;5049892;28;20023;-59
2023/08/10 06:13:31;;;;;;;11.20;10.70;;;;;;;;;;5051919;28;20799;-58
2023/08/10 06:15:56;;;;;;;11.23;10.73;;;;;;;;;;5050307;28;20440;-58
2023/08/10 06:18:22;;;;;;;11.25;10.75;;;;;;;;;;5049292;28;20092;-59
2023/08/10 06:20:47;;;;;;;11.02;10.52;;;;;;;;;;5050150;28;20033;-59
2023/08/10 06:23:13;;;;;;;11.07;10.57;;;;;;;;;;5049075;28;20107;-60
2023/08/10 06:25:40;;;;;;;11.15;10.65;;;;;;;;;;5050591;28;20423;-59
2023/08/10 06:28:09;;;;;;;11.32;10.82;;;;;;;;;;5050605;28;20108;-59
2023/08/10 06:30:34;;;;;;;11.52;11.02;;;;;;;;;;5049913;28;20022;-61
2023/08/10 06:33:00;;;;;;;11.07;10.57;;;;;;;;;;5048022;28;20088;-59
2023/08/10 06:35:25;;;;;;;11.50;11.00;;;;;;;;;;5050220;28;20031;-58
2023/08/10 06:37:51;;;;;;;11.43;10.93;;;;;;;;;;5047294;28;20629;-59
2023/08/10 06:40:16;;;;;;;11.40;10.90;;;;;;;;;;5051266;28;20013;-59
2023/08/10 06:42:42;;;;;;;11.38;10.88;;;;;;;;;;5032508;28;20048;-59
2023/08/10 06:45:08;;;;;;;11.50;11.00;;;;;;;;;;5049825;28;20361;-59
2023/08/10 06:47:33;;;;;;;11.38;10.88;;;;;;;;;;5049794;28;20020;-59
2023/08/10 06:49:59;;;;;;;11.65;11.15;;;;;;;;;;5049629;28;20491;-58
2023/08/10 06:52:24;;;;;;;11.93;11.43;;;;;;;;;;5048843;28;20074;-59
2023/08/10 06:54:52;;;;;;;11.27;10.77;;;;;;;;;;5046925;28;20029;-59
2023/08/10 06:57:18;;;;;;;11.40;10.90;;;;;;;;;;5050495;28;20021;-59
2023/08/10 06:59:43;;;;;;;11.70;11.20;;;;;;;;;;5053713;28;20014;-60
2023/08/10 07:02:09;;;;;;;11.25;10.75;;;;;;;;;;5071429;28;20541;-60
2023/08/10 07:04:34;;;;;;;11.50;11.00;;;;;;;;;;5074062;28;20598;-59
2023/08/10 07:06:59;;;;;;;11.60;11.10;;;;;;;;;;5073128;28;20270;-58
2023/08/10 07:09:25;;;;;;;11.40;10.90;;;;;;;;;;5073591;28;20107;-59
2023/08/10 07:11:50;;;;;;;11.45;10.95;;;;;;;;;;5073975;28;20017;-59
2023/08/10 07:14:15;;;;;;;11.30;10.80;;;;;;;;;;5073115;28;20438;-59
2023/08/10 07:16:41;;;;;;;11.52;11.02;;;;;;;;;;5072939;28;20028;-59
2023/08/10 07:19:06;;;;;;;11.33;10.83;;;;;;;;;;5072080;28;20525;-60
2023/08/10 07:21:31;;;;;;;11.40;10.90;;;;;;;;;;5072931;28;20043;-58
2023/08/10 07:23:57;;;;;;;11.57;11.07;;;;;;;;;;5072507;28;20031;-59
2023/08/10 07:26:22;;;;;;;11.20;10.70;;;;;;;;;;5072066;28;20262;-60
2023/08/10 07:28:47;;;;;;;11.50;11.00;;;;;;;;;;5074839;28;20107;-59
2023/08/10 07:31:13;;;;;;;11.43;10.93;;;;;;;;;;5073529;28;20029;-59
2023/08/10 07:33:38;;;;;;;11.40;10.90;;;;;;;;;;5073821;28;20160;-60
2023/08/10 07:36:04;;;;;;;11.20;10.70;;;;;;;;;;5073045;28;20736;-59
2023/08/10 07:38:29;;;;;;;11.32;10.82;;;;;;;;;;5076043;28;20732;-59
2023/08/10 07:40:54;;;;;;;11.17;10.67;;;;;;;;;;5070568;28;20028;-59
2023/08/10 07:43:20;;;;;;;11.38;10.88;;;;;;;;;;5072300;28;20250;-59
2023/08/10 07:45:46;;;;;;;11.25;10.75;;;;;;;;;;5072391;28;20032;-59
2023/08/10 07:48:11;;;;;;;11.23;10.73;;;;;;;;;;5070746;28;20024;-59
2023/08/10 07:50:36;;;;;;;11.20;10.70;;;;;;;;;;5070460;28;20399;-59
2023/08/10 07:53:03;;;;;;;11.20;10.70;;;;;;;;;;5071698;28;20269;-59
2023/08/10 07:55:28;;;;;;;11.30;10.80;;;;;;;;;;5071952;28;20023;-60
2023/08/10 07:57:54;;;;;;;11.40;10.90;;;;;;;;;;5068883;28;20028;-59
2023/08/10 08:00:19;;;;;;;11.20;10.70;;;;;;;;;;5070603;28;20487;-59
2023/08/10 08:02:44;;;;;;;11.25;10.75;;;;;;;;;;5071577;28;20103;-59
2023/08/10 08:05:11;;;;;;;11.20;10.70;;;;;;;;;;5071536;28;20025;-58
2023/08/10 08:07:36;;;;;;;11.68;11.18;;;;;;;;;;5072044;28;20342;-59
2023/08/10 08:10:02;;;;;;;11.13;10.63;;;;;;;;;;5071544;28;20480;-60
2023/08/10 08:12:27;;;;;;;11.27;10.77;;;;;;;;;;5073990;28;20487;-60
2023/08/10 08:14:53;;;;;;;11.88;11.38;;;;;;;;;;5072576;28;20023;-59
2023/08/10 08:17:19;;;;;;;11.60;11.10;;;;;;;;;;5075626;28;20025;-60
2023/08/10 08:19:44;;;;;;;11.45;10.95;;;;;;;;;;5077112;28;20567;-59
2023/08/10 08:22:10;;;;;;;11.40;10.90;;;;;;;;;;5074279;28;20095;-59
2023/08/10 08:24:35;;;;;;;11.45;10.95;;;;;;;;;;5075235;28;20024;-59
2023/08/10 08:27:00;;;;;;;11.20;10.70;;;;;;;;;;5073020;28;20031;-58
2023/08/10 08:29:26;;;;;;;11.40;10.90;;;;;;;;;;5072981;28;20040;-60
2023/08/10 08:31:51;;;;;;;11.23;10.73;;;;;;;;;;5070461;28;20044;-60
2023/08/10 08:34:16;;;;;;;11.27;10.77;;;;;;;;;;5071194;28;20257;-60
2023/08/10 08:36:42;;;;;;;11.32;10.82;;;;;;;;;;5055451;28;20032;-59
2023/08/10 08:39:09;;;;;;;11.32;10.77;;;;;;;;;;5074303;28;20031;-59
2023/08/10 08:41:36;;;;;;;11.05;10.55;;;;;;;;;;5072188;28;20020;-58
2023/08/10 08:44:03;;;;;;;11.35;10.85;;;;;;;;;;5074976;28;20024;-59
2023/08/10 08:46:30;;;;;;;11.10;10.60;;;;;;;;;;5072897;28;20020;-59
2023/08/10 08:48:56;;;;;;;11.50;11.00;;;;;;;;;;5072701;28;20024;-58
2023/08/10 08:51:21;;;;;;;10.95;10.45;;;;;;;;;;5070520;28;20034;-60
2023/08/10 08:53:47;;;;;;;11.30;10.80;;;;;;;;;;5068549;28;20032;-63
2023/08/10 08:56:14;;;;;;;11.50;11.00;;;;;;;;;;5069246;28;20020;-60
2023/08/10 08:58:39;;;;;;;11.20;10.70;;;;;;;;;;5069742;28;20017;-59
2023/08/10 09:01:04;;;;;;;11.30;10.80;;;;;;;;;;5070023;28;20408;-58
2023/08/10 09:03:30;;;;;;;11.32;10.82;;;;;;;;;;5072046;28;20471;-59
2023/08/10 09:05:55;;;;;;;11.60;11.10;;;;;;;;;;5068934;28;20085;-58
2023/08/10 09:08:21;;;;;;;11.15;10.65;;;;;;;;;;5070697;28;20445;-60
2023/08/10 09:10:46;;;;;;;11.07;10.57;;;;;;;;;;5068099;28;20507;-60
2023/08/10 09:13:17;;;;;;;11.20;10.70;;;;;;;;;;5070694;28;20031;-59
2023/08/10 09:15:43;;;;;;;11.20;10.70;;;;;;;;;;5052630;28;20108;-59
2023/08/10 09:18:08;;;;;;;11.05;10.55;;;;;;;;;;5072795;28;20016;-60
2023/08/10 09:20:34;;;;;;;11.63;11.13;;;;;;;;;;5068906;28;20023;-59
2023/08/10 09:23:00;;;;;;;11.00;10.50;;;;;;;;;;5072039;28;20522;-57
2023/08/10 09:25:26;;;;;;;11.30;10.80;;;;;;;;;;5070739;28;20483;-60
2023/08/10 09:27:52;;;;;;;11.18;10.68;;;;;;;;;;5072421;28;20069;-59
2023/08/10 09:30:18;;;;;;;11.27;10.77;;;;;;;;;;5074108;28;20024;-58
2023/08/10 09:32:43;;;;;;;11.32;10.82;;;;;;;;;;5070977;28;20028;-59
2023/08/10 09:35:14;;;;;;;11.30;10.80;;;;;;;;;;5069666;28;20044;-59
2023/08/10 09:37:39;;;;;;;11.25;10.75;;;;;;;;;;5069484;28;20020;-59
2023/08/10 09:40:06;;;;;;;11.50;11.00;;;;;;;;;;5071490;28;20104;-59
2023/08/10 09:42:32;;;;;;;10.88;10.38;;;;;;;;;;5072500;28;20032;-59
2023/08/10 09:44:58;;;;;;;11.43;10.93;;;;;;;;;;5071311;28;20129;-60
2023/08/10 09:47:24;;;;;;;11.30;10.80;;;;;;;;;;5070681;28;20136;-60
2023/08/10 09:50:00;;;;;;;11.50;11.00;;;;;;;;;;5069694;28;20474;-59
2023/08/10 09:52:26;;;;;;;11.10;10.60;;;;;;;;;;5070457;28;20127;-59
2023/08/10 09:54:52;;;;;;;11.40;10.90;;;;;;;;;;5069588;28;20099;-59
2023/08/10 09:57:18;;;;;;;11.73;11.23;;;;;;;;;;5070808;28;20441;-60
2023/08/10 09:59:45;;;;;;;11.75;11.25;;;;;;;;;;5067076;28;20048;-59
2023/08/10 10:02:11;;;;;;;12.02;11.52;;;;;;;;;;5069790;28;20049;-58
2023/08/10 10:04:36;;;;;;;11.40;10.90;;;;;;;;;;5070035;28;20025;-59
2023/08/10 10:07:02;;;;;;;11.60;11.10;;;;;;;;;;5069203;28;20046;-60
2023/08/10 10:09:28;;;;;;;11.98;11.48;;;;;;;;;;5069755;28;20070;-59
2023/08/10 10:11:55;;;;;;;11.65;11.15;;;;;;;;;;5069520;28;20033;-60
2023/08/10 10:14:20;;;;;;;12.10;11.60;;;;;;;;;;5069840;28;20012;-60
2023/08/10 10:16:46;;;;;;;11.57;11.07;;;;;;;;;;5067766;28;20021;-58
2023/08/10 10:19:12;;;;;;;11.13;10.63;;;;;;;;;;5070174;28;20028;-59
2023/08/10 10:21:37;;;;;;;11.70;11.20;;;;;;;;;;5069686;28;20017;-59
2023/08/10 10:24:03;;;;;;;11.75;11.25;;;;;;;;;;5070490;28;20024;-60
2023/08/10 10:26:29;;;;;;;11.18;10.68;;;;;;;;;;5069099;28;20021;-58
2023/08/10 10:29:13;;;;;;;11.50;11.00;;;;;;;;;;5069703;28;20112;-57
2023/08/10 10:31:39;;;;;;;11.35;10.85;;;;;;;;;;5067896;28;20483;-59
2023/08/10 10:34:04;;;;;;;11.65;11.15;;;;;;;;;;5071021;28;20095;-58
2023/08/10 10:36:33;;;;;;;11.10;10.60;;;;;;;;;;5075302;28;20024;-59
2023/08/10 10:39:07;;;;;;;11.32;10.82;;;;;;;;;;5073555;28;20717;-58
2023/08/10 10:41:36;;;;;;;11.18;10.68;;;;;;;;;;5073426;28;20020;-59
2023/08/10 10:44:05;;;;;;;11.20;10.70;;;;;;;;;;5073747;28;20021;-59
2023/08/10 10:46:33;;;;;;;11.30;10.80;;;;;;;;;;5071201;28;20028;-59
2023/08/10 10:48:59;;;;;;;11.77;11.27;;;;;;;;;;5073814;28;20020;-58
2023/08/10 10:51:25;;;;;;;11.35;10.85;;;;;;;;;;5072495;28;20377;-57
2023/08/10 10:53:53;;;;;;;11.38;10.88;;;;;;;;;;5071818;28;20024;-58
2023/08/10 10:56:19;;;;;;;11.40;10.90;;;;;;;;;;5070829;28;20103;-59
2023/08/10 10:58:45;;;;;;;11.45;10.95;;;;;;;;;;5072801;28;20290;-59
2023/08/10 11:01:11;;;;;;;11.40;10.90;;;;;;;;;;5070450;28;20041;-59
2023/08/10 11:03:39;;;;;;;11.52;11.02;;;;;;;;;;5073562;28;20091;-59
2023/08/10 11:06:11;;;;;;;11.60;11.10;;;;;;;;;;5075260;28;20510;-58
2023/08/10 11:08:36;;;;;;;11.43;10.93;;;;;;;;;;5071993;28;20073;-59
2023/08/10 11:11:01;;;;;;;11.88;11.38;;;;;;;;;;5073090;28;20020;-59
2023/08/10 11:13:27;;;;;;;11.10;10.60;;;;;;;;;;5073229;28;20364;-59
2023/08/10 11:15:53;;;;;;;10.95;10.45;;;;;;;;;;5073370;28;20256;-59
2023/08/10 11:18:18;;;;;;;11.60;11.10;;;;;;;;;;5072443;28;20081;-59
2023/08/10 11:20:48;;;;;;;11.02;10.52;;;;;;;;;;5073461;28;20070;-59
2023/08/10 11:23:13;;;;;;;11.48;10.98;;;;;;;;;;5072619;28;20024;-59
2023/08/10 11:25:49;;;;;;;11.02;10.52;;;;;;;;;;5071136;28;20151;-59
2023/08/10 11:28:15;;;;;;;11.50;11.00;;;;;;;;;;5071851;28;20025;-59
2023/08/10 11:30:40;;;;;;;11.30;10.80;;;;;;;;;;5068828;28;20027;-60
2023/08/10 11:33:05;;;;;;;11.43;10.93;;;;;;;;;;5072029;28;20025;-59
2023/08/10 11:35:30;;;;;;;11.98;11.48;;;;;;;;;;5073533;28;20419;-59
2023/08/10 11:37:56;;;;;;;11.63;11.13;;;;;;;;;;5075847;28;20016;-59
2023/08/10 11:40:22;;;;;;;12.57;11.98;;;;;;;;;;5072140;28;20323;-58
2023/08/10 11:42:49;;;;;;;11.55;11.05;;;;;;;;;;5071692;28;20032;-59
2023/08/10 11:45:22;;;;;;;11.27;10.77;;;;;;;;;;5071605;28;20025;-59
2023/08/10 11:47:51;;;;;;;11.95;11.45;;;;;;;;;;5068838;28;20360;-60
2023/08/10 11:50:17;;;;;;;11.68;11.18;;;;;;;;;;5067968;28;20020;-59
2023/08/10 11:52:43;;;;;;;11.07;10.57;;;;;;;;;;5072600;28;20352;-60
2023/08/10 11:55:12;;;;;;;11.45;10.95;;;;;;;;;;5071192;28;20475;-59
2023/08/10 11:57:38;;;;;;;11.25;10.75;;;;;;;;;;5071475;28;20021;-58
2023/08/10 12:00:17;;;;;;;11.43;10.93;;;;;;;;;;5071999;28;20029;-60
2023/08/10 12:02:59;;;;;;;11.57;11.07;;;;;;;;;;5074585;28;20054;-59
2023/08/10 12:05:37;;;;;;;11.50;11.00;;;;;;;;;;5073138;28;20028;-59
2023/08/10 12:08:07;;;;;;;11.20;10.70;;;;;;;;;;5072356;28;20039;-58
2023/08/10 12:10:33;;;;;;;11.10;10.60;;;;;;;;;;5072637;28;20025;-59
2023/08/10 12:13:01;;;;;;;11.60;11.10;;;;;;;;;;5073633;28;20375;-61
2023/08/10 12:15:26;;;;;;;11.40;10.90;;;;;;;;;;5057862;28;20028;-59
2023/08/10 12:17:52;;;;;;;11.68;11.18;;;;;;;;;;5071102;28;20070;-58
2023/08/10 12:20:18;;;;;;;11.80;11.30;;;;;;;;;;5072131;28;20115;-60
2023/08/10 12:22:44;;;;;;;11.30;10.80;;;;;;;;;;5074120;28;20605;-59
2023/08/10 12:25:09;;;;;;;11.80;11.30;;;;;;;;;;5072147;28;20036;-58
2023/08/10 12:27:34;;;;;;;11.70;11.20;;;;;;;;;;5072138;28;20361;-60
2023/08/10 12:29:59;;;;;;;11.50;11.00;;;;;;;;;;5075475;28;20286;-60
2023/08/10 12:32:25;;;;;;;11.23;10.73;;;;;;;;;;5072485;28;20339;-59
2023/08/10 12:34:50;;;;;;;11.88;11.38;;;;;;;;;;5072506;28;20466;-59
2023/08/10 12:37:15;;;;;;;12.30;11.70;;;;;;;;;;5072836;28;20021;-59
2023/08/10 12:39:40;;;;;;;11.73;11.23;;;;;;;;;;5072082;28;20826;-59
2023/08/10 12:42:06;;;;;;;12.10;11.60;;;;;;;;;;5073987;28;20012;-59
2023/08/10 12:44:31;;;;;;;12.30;11.70;;;;;;;;;;5071979;28;20737;-59
2023/08/10 12:46:57;;;;;;;11.77;11.27;;;;;;;;;;5070372;28;20026;-59
2023/08/10 12:49:22;;;;;;;12.40;11.80;;;;;;;;;;5071749;28;20035;-59
2023/08/10 12:51:48;;;;;;;12.50;11.90;;;;;;;;;;5069335;28;20017;-59
2023/08/10 12:54:13;;;;;;;11.50;11.00;;;;;;;;;;5072480;28;20709;-59
2023/08/10 12:56:38;;;;;;;11.27;10.77;;;;;;;;;;5071229;28;20009;-59
2023/08/10 12:59:04;;;;;;;10.80;10.30;;;;;;;;;;5074420;28;20032;-59
2023/08/10 13:01:29;;;;;;;11.05;10.55;;;;;;;;;;5072329;28;20832;-59
2023/08/10 13:03:54;;;;;;;11.13;10.63;;;;;;;;;;5072617;28;20597;-59
2023/08/10 13:06:19;;;;;;;11.40;10.90;;;;;;;;;;5073827;28;20638;-59
2023/08/10 13:08:46;;;;;;;11.27;10.77;;;;;;;;;;5072665;28;20040;-59
2023/08/10 13:11:14;;;;;;;11.27;10.77;;;;;;;;;;5071046;28;20307;-59
2023/08/10 13:13:39;;;;;;;11.30;10.80;;;;;;;;;;5073699;28;20031;-59
2023/08/10 13:16:05;;;;;;;11.40;10.90;;;;;;;;;;5072034;28;20024;-60
2023/08/10 13:18:30;;;;;;;10.90;10.40;;;;;;;;;;5071999;28;20020;-59
2023/08/10 13:20:55;;;;;;;11.70;11.20;;;;;;;;;;5069475;28;20025;-60
2023/08/10 13:23:21;;;;;;;10.77;10.27;;;;;;;;;;5071270;28;20277;-59
2023/08/10 13:25:46;;;;;;;11.05;10.55;;;;;;;;;;5068334;28;20016;-59
2023/08/10 13:28:11;;;;;;;10.90;10.40;;;;;;;;;;5073055;28;20024;-59
2023/08/10 13:30:36;;;;;;;11.07;10.57;;;;;;;;;;5073099;28;20051;-59
2023/08/10 13:33:02;;;;;;;11.23;10.73;;;;;;;;;;5073539;28;20289;-60
2023/08/10 13:35:27;;;;;;;11.30;10.80;;;;;;;;;;5074223;28;20783;-59
2023/08/10 13:37:52;;;;;;;11.07;10.57;;;;;;;;;;5071250;28;20423;-58
2023/08/10 13:40:18;;;;;;;11.35;10.85;;;;;;;;;;5073589;28;20112;-58
2023/08/10 13:42:43;;;;;;;11.40;10.90;;;;;;;;;;5074813;28;20035;-59
2023/08/10 13:45:08;;;;;;;11.35;10.85;;;;;;;;;;5071852;28;20059;-59
2023/08/10 13:47:34;;;;;;;11.45;10.95;;;;;;;;;;5072551;28;20107;-59
2023/08/10 13:49:59;;;;;;;11.18;10.68;;;;;;;;;;5071106;28;20059;-59
2023/08/10 13:52:24;;;;;;;11.70;11.20;;;;;;;;;;5072780;28;20080;-59
2023/08/10 13:54:50;;;;;;;11.25;10.75;;;;;;;;;;5070935;28;20514;-59
2023/08/10 13:57:17;;;;;;;10.70;10.20;;;;;;;;;;5073947;28;20028;-59
2023/08/10 13:59:44;;;;;;;11.38;10.88;;;;;;;;;;5073148;28;20021;-59
2023/08/10 14:02:09;;;;;;;11.73;11.23;;;;;;;;;;5069726;28;20043;-60
2023/08/10 14:04:35;;;;;;;11.57;11.07;;;;;;;;;;5052086;28;20024;-59
2023/08/10 14:07:00;;;;;;;11.73;11.23;;;;;;;;;;5070999;28;20021;-60
2023/08/10 14:09:25;;;;;;;11.70;11.20;;;;;;;;;;5072371;28;20028;-61